Página principal
METAR-TAF:

METAR-TAF

Aeroportos :

Effingham County Memorial Airport

Effingham, Illinois, Estados Unidos

latitude: 39-04-14N, longitude: 088-32-00W, altura: 179 m

Observação actual do tempo

O boletim foi feito há 16 minutos, às 19:15 UTC
Vento 7 kt de nor-noroeste
Temperatura 9°C
Humidade 71%
Pressão 1015 hPa
Visibilidade: 16.1 km
Encobertoa uma altura de 6500 ft

METAR: K1H2 311915Z AUTO 33007KT 10SM OVC065 09/04 A2998 RMK AO2 T00880037

Hora: 14:31 (19:31 UTC)


TAF: em falta

Observações e previsões do tempo de mais de 4000 aeroportos (mensagens METAR e TAF).

As estações disponíveis são os pontos amarelos e vermelhos sobre o mapa.

Mova o rato sobre o mapa para ver o nome da estação.

Depois clique no ponto para visualizar as observações e previsões meteorológicas.

Para alterar o mapa : clique nos botões verdes com uma cruz preta para aumentar o zoom; no botão verde com uma pitada de zoom; ou nas setas verdes para mapas adjacentes.


METAR-TAF: